Aviation Digital Data Service (ADDS)

Output produced by METARs form (1011 UTC 01 October 2014)
found at http://www.aviationweather.gov/adds/metars/
 
KSPI 010520Z 0106/0206 10010KT P6SM SCT250 
     FM011400 15008KT P6SM SCT040 SCT250 
     FM020000 14006KT P6SM BKN050